createdAt,value
2023-04-01T00:01:45.781Z,97960.78
2023-04-01T00:04:12.556Z,97969.63
2023-04-01T00:06:39.364Z,97963.47
2023-04-01T00:09:06.047Z,97962.38
2023-04-01T00:11:33.654Z,97958.91
2023-04-01T00:14:02.791Z,97953.78
2023-04-01T00:16:29.570Z,97944.66
2023-04-01T00:18:56.350Z,97942.00
2023-04-01T00:21:23.606Z,97954.34
2023-04-01T00:23:51.658Z,97950.59
2023-04-01T00:26:21.519Z,97958.59
2023-04-01T00:28:48.820Z,97955.16
2023-04-01T00:31:16.133Z,97951.13
2023-04-01T00:33:43.027Z,97950.59
2023-04-01T00:36:18.835Z,97942.53
2023-04-01T00:38:45.852Z,97945.50
2023-04-01T00:41:15.963Z,97940.13
2023-04-01T00:43:44.603Z,97950.34
2023-04-01T00:46:11.350Z,97953.53
2023-04-01T00:48:41.213Z,97949.47
2023-04-01T00:51:18.859Z,97958.06
2023-04-01T00:53:50.207Z,97967.19
2023-04-01T00:56:19.942Z,97962.88
2023-04-01T00:58:53.319Z,97968.75
2023-04-01T01:01:21.958Z,97961.53
2023-04-01T01:03:48.737Z,97955.34
2023-04-01T01:06:24.903Z,97957.22
2023-04-01T01:09:10.619Z,97959.66
2023-04-01T01:11:56.072Z,97959.72
2023-04-01T01:14:34.990Z,97960.75
2023-04-01T01:17:08.852Z,97957.47
2023-04-01T01:19:49.113Z,97954.28
2023-04-01T01:22:46.346Z,97952.66
2023-04-01T01:25:13.012Z,97955.34
2023-04-01T01:27:40.806Z,97944.34
2023-04-01T01:30:22.754Z,97939.50
2023-04-01T01:32:54.044Z,97945.69
2023-04-01T01:35:40.387Z,97937.66
2023-04-01T01:38:19.673Z,97931.22
2023-04-01T01:40:55.589Z,97930.94
2023-04-01T01:43:26.303Z,97917.25
2023-04-01T01:45:58.957Z,97931.47
2023-04-01T01:48:26.579Z,97922.34
2023-04-01T01:50:54.086Z,97910.81
2023-04-01T01:53:21.506Z,97912.97
2023-04-01T01:55:48.986Z,97891.78
2023-04-01T01:58:22.355Z,97902.25
2023-04-01T02:00:56.838Z,97889.63
2023-04-01T02:03:26.410Z,97885.88
2023-04-01T02:05:55.250Z,97882.38
2023-04-01T02:08:28.054Z,97879.44
2023-04-01T02:11:01.176Z,97879.44
2023-04-01T02:13:39.709Z,97879.94
2023-04-01T02:16:13.304Z,97883.41
2023-04-01T02:18:41.458Z,97881.81
2023-04-01T02:21:09.230Z,97878.59
2023-04-01T02:23:37.194Z,97859.00
2023-04-01T02:26:07.253Z,97860.91
2023-04-01T02:28:38.347Z,97881.28
2023-04-01T02:31:05.457Z,97886.84
2023-04-01T02:33:32.327Z,97882.34
2023-04-01T02:35:59.463Z,97878.81
2023-04-01T02:38:26.437Z,97878.00
2023-04-01T02:40:59.105Z,97878.81
2023-04-01T02:43:26.062Z,97886.56
2023-04-01T02:45:52.865Z,97882.00
2023-04-01T02:48:19.627Z,97893.88
2023-04-01T02:50:46.837Z,97886.38
2023-04-01T02:53:13.683Z,97877.22
2023-04-01T02:55:40.458Z,97887.69
2023-04-01T02:58:07.641Z,97893.31
2023-04-01T03:00:34.754Z,97895.97
2023-04-01T03:03:01.706Z,97906.44
2023-04-01T03:05:28.505Z,97917.13
2023-04-01T03:07:57.641Z,97924.94
2023-04-01T03:10:24.385Z,97925.44
2023-04-01T03:12:52.099Z,97924.06
2023-04-01T03:15:18.810Z,97924.91
2023-04-01T03:17:45.557Z,97920.59
2023-04-01T03:20:12.952Z,97924.66
2023-04-01T03:22:42.308Z,97928.44
2023-04-01T03:25:11.122Z,97929.50
2023-04-01T03:27:38.602Z,97924.38
2023-04-01T03:30:06.941Z,97918.47
2023-04-01T03:32:39.896Z,97917.63
2023-04-01T03:35:07.161Z,97916.81
2023-04-01T03:37:33.925Z,97905.59
2023-04-01T03:40:00.958Z,97906.66
2023-04-01T03:42:27.730Z,97916.53
2023-04-01T03:44:54.639Z,97902.34
2023-04-01T03:47:21.385Z,97912.50
2023-04-01T03:49:48.216Z,97912.50
2023-04-01T03:52:14.982Z,97919.97
2023-04-01T03:54:41.703Z,97903.66
2023-04-01T03:57:08.662Z,97913.28
2023-04-01T03:59:35.706Z,97918.66
2023-04-01T04:02:03.058Z,97918.13
2023-04-01T04:04:31.215Z,97912.50
2023-04-01T04:06:58.070Z,97910.25
2023-04-01T04:09:28.624Z,97924.25
2023-04-01T04:11:55.479Z,97918.88
2023-04-01T04:14:22.200Z,97909.19
2023-04-01T04:16:49.410Z,97909.19
2023-04-01T04:19:16.184Z,97917.22
2023-04-01T04:21:43.229Z,97918.22
2023-04-01T04:24:10.847Z,97918.59
2023-04-01T04:26:57.797Z,97924.69
2023-04-01T04:29:24.517Z,97923.84
2023-04-01T04:31:51.577Z,97915.31
2023-04-01T04:34:19.562Z,97916.69
2023-04-01T04:36:46.298Z,97913.72
2023-04-01T04:39:13.539Z,97918.47
2023-04-01T04:41:42.483Z,97925.63
2023-04-01T04:44:09.303Z,97932.66
2023-04-01T04:46:37.247Z,97933.50
2023-04-01T04:49:14.023Z,97931.94
2023-04-01T04:51:40.897Z,97924.38
2023-04-01T04:54:08.473Z,97924.78
2023-04-01T04:57:01.357Z,97924.44
2023-04-01T04:59:32.628Z,97928.72
2023-04-01T05:02:05.823Z,97930.66
2023-04-01T05:04:36.762Z,97924.25
2023-04-01T05:07:04.836Z,97937.09
2023-04-01T05:09:33.177Z,97932.13
2023-04-01T05:11:59.949Z,97933.47
2023-04-01T05:14:31.227Z,97947.31
2023-04-01T05:17:05.810Z,97944.75
2023-04-01T05:19:32.837Z,97944.78
2023-04-01T05:21:59.951Z,97943.25
2023-04-01T05:24:26.748Z,97941.91
2023-04-01T05:26:55.826Z,97947.88
2023-04-01T05:29:24.273Z,97948.66
2023-04-01T05:31:57.187Z,97943.03
2023-04-01T05:34:23.953Z,97962.63
2023-04-01T05:36:51.325Z,97961.03
2023-04-01T05:39:18.066Z,97967.50
2023-04-01T05:41:46.121Z,97961.34
2023-04-01T05:44:13.588Z,97962.94
2023-04-01T05:46:40.344Z,97983.06
2023-04-01T05:49:17.036Z,97981.44
2023-04-01T05:51:43.882Z,97986.25
2023-04-01T05:54:10.774Z,97982.44
2023-04-01T05:56:38.469Z,97995.28
2023-04-01T05:59:07.324Z,97988.53
2023-04-01T06:01:34.044Z,97992.00
2023-04-01T06:04:01.129Z,97986.38
2023-04-01T06:06:29.703Z,97973.69
2023-04-01T06:09:24.749Z,97993.25
2023-04-01T06:12:38.702Z,97987.31
2023-04-01T06:15:24.238Z,97990.63
2023-04-01T06:18:16.288Z,97987.53
2023-04-01T06:21:21.050Z,97989.66
2023-04-01T06:24:01.876Z,97991.19
2023-04-01T06:26:54.770Z,97998.75
2023-04-01T06:29:33.670Z,97991.34
2023-04-01T06:32:23.020Z,97993.59
2023-04-01T06:35:14.618Z,97996.59
2023-04-01T06:38:09.438Z,97994.53
2023-04-01T06:40:51.346Z,98009.81
2023-04-01T06:43:35.077Z,97997.22
2023-04-01T06:46:23.842Z,98003.06
2023-04-01T06:49:51.073Z,98003.06
2023-04-01T06:53:01.547Z,98006.41
2023-04-01T06:56:12.861Z,98016.72
2023-04-01T06:59:15.217Z,98012.22
2023-04-01T07:01:54.258Z,98016.53
2023-04-01T07:04:29.549Z,98012.72
2023-04-01T07:07:06.074Z,98013.06
2023-04-01T07:09:38.162Z,98014.72
2023-04-01T07:12:35.024Z,98007.53
2023-04-01T07:15:22.477Z,97996.44
2023-04-01T07:17:55.825Z,98002.22
2023-04-01T07:20:33.167Z,98008.19
2023-04-01T07:23:03.938Z,98003.25
2023-04-01T07:26:01.000Z,98007.28
2023-04-01T07:28:58.112Z,97998.66
2023-04-01T07:31:57.865Z,98002.97
2023-04-01T07:34:53.810Z,97995.22
2023-04-01T07:37:30.026Z,97982.13
2023-04-01T07:40:12.316Z,97972.50
2023-04-01T07:43:10.876Z,97986.59
2023-04-01T07:46:10.069Z,97992.75
2023-04-01T07:48:54.270Z,97995.97
2023-04-01T07:51:48.925Z,98003.31
2023-04-01T07:54:24.381Z,98005.34
2023-04-01T07:57:16.636Z,97996.28
2023-04-01T08:00:11.009Z,97997.28
2023-04-01T08:03:10.387Z,97995.91
2023-04-01T08:06:08.487Z,98029.88
2023-04-01T08:08:50.482Z,98020.94
2023-04-01T08:12:06.597Z,98023.84
2023-04-01T08:15:00.680Z,98028.66
2023-04-01T08:18:12.197Z,98022.69
2023-04-01T08:20:49.768Z,98022.59
2023-04-01T08:23:19.677Z,98007.84
2023-04-01T08:25:55.693Z,98005.38
2023-04-01T08:28:36.040Z,98036.81
2023-04-01T08:31:15.097Z,98005.06
2023-04-01T08:33:45.791Z,98003.28
2023-04-01T08:36:20.626Z,97996.50
2023-04-01T08:39:15.582Z,97995.50
2023-04-01T08:42:01.011Z,98004.91
2023-04-01T08:45:07.621Z,98008.72
2023-04-01T08:47:43.717Z,98015.00
2023-04-01T08:50:30.647Z,98009.72
2023-04-01T08:53:30.524Z,98014.66
2023-04-01T08:56:04.587Z,98016.84
2023-04-01T08:58:53.386Z,98015.53
2023-04-01T09:01:46.217Z,98019.53
2023-04-01T09:04:47.087Z,98014.44
2023-04-01T09:07:50.894Z,98015.41
2023-04-01T09:10:29.925Z,98024.13
2023-04-01T09:13:16.551Z,98029.97
2023-04-01T09:16:08.311Z,98021.06
2023-04-01T09:18:57.072Z,98038.56
2023-04-01T09:21:45.976Z,98036.16
2023-04-01T09:24:35.935Z,98042.59
2023-04-01T09:27:03.154Z,98032.00
2023-04-01T09:29:45.328Z,98045.22
2023-04-01T09:32:43.553Z,98045.19
2023-04-01T09:35:42.323Z,98040.97
2023-04-01T09:38:29.926Z,98037.53
2023-04-01T09:41:00.057Z,98051.66
2023-04-01T09:44:11.141Z,98060.69
2023-04-01T09:51:33.837Z,98060.06
2023-04-01T09:54:13.339Z,98054.38
2023-04-01T09:57:19.753Z,98063.06
2023-04-01T10:00:27.719Z,98046.56
2023-04-01T10:03:38.124Z,98029.38
2023-04-01T10:06:25.190Z,98037.69
2023-04-01T10:09:21.303Z,98049.34
2023-04-01T10:11:57.157Z,98039.06
2023-04-01T10:14:34.983Z,98049.03
2023-04-01T10:17:17.789Z,98041.09
2023-04-01T10:19:56.215Z,98030.41
2023-04-01T10:22:35.457Z,98037.16
2023-04-01T10:25:39.533Z,98037.34
2023-04-01T10:28:48.904Z,98029.72
2023-04-01T10:31:42.751Z,98038.78
2023-04-01T10:34:28.053Z,98042.47
2023-04-01T10:36:57.331Z,98042.41
2023-04-01T10:40:15.636Z,98042.69
2023-04-01T10:43:44.399Z,98049.19
2023-04-01T10:46:50.647Z,98052.31
2023-04-01T10:49:24.357Z,98053.19
2023-04-01T10:52:19.163Z,98051.38
2023-04-01T10:55:45.836Z,98051.56
2023-04-01T10:59:16.366Z,98048.13
2023-04-01T11:02:37.033Z,98046.75
2023-04-01T11:05:59.512Z,98052.16
2023-04-01T11:08:49.166Z,98050.56
2023-04-01T11:11:26.765Z,98039.38
2023-04-01T11:14:27.682Z,98041.69
2023-04-01T11:17:13.029Z,98031.34
2023-04-01T11:20:01.686Z,98037.97
2023-04-01T11:22:54.350Z,98030.56
2023-04-01T11:25:46.201Z,98028.06
2023-04-01T11:29:05.027Z,98042.59
2023-04-01T11:31:53.586Z,98026.03
2023-04-01T11:34:52.034Z,98031.31
2023-04-01T11:37:50.058Z,98033.09
2023-04-01T11:40:59.546Z,98044.31
2023-04-01T11:44:13.151Z,98045.59
2023-04-01T11:47:15.608Z,98025.50
2023-04-01T11:50:00.853Z,98044.59
2023-04-01T11:52:54.888Z,98035.16
2023-04-01T11:55:43.436Z,98027.00
2023-04-01T11:58:22.315Z,98034.88
2023-04-01T12:01:07.719Z,98024.22
2023-04-01T12:03:52.476Z,98026.13
2023-04-01T12:06:31.371Z,98018.59
2023-04-01T12:09:31.178Z,98018.13
2023-04-01T12:12:19.900Z,98019.22
2023-04-01T12:14:59.445Z,98020.91
2023-04-01T12:17:32.225Z,98021.66
2023-04-01T12:20:14.121Z,98013.13
2023-04-01T12:23:02.692Z,98013.94
2023-04-01T12:25:48.810Z,98017.22
2023-04-01T12:28:18.615Z,98023.94
2023-04-01T12:31:07.138Z,98021.72
2023-04-01T12:34:15.312Z,98018.03
2023-04-01T12:37:18.979Z,98017.19
2023-04-01T12:39:57.602Z,98013.19
2023-04-01T12:42:36.586Z,98020.88
2023-04-01T12:45:06.644Z,98022.06
2023-04-01T12:47:50.615Z,98016.13
2023-04-01T12:50:18.145Z,98013.31
2023-04-01T12:52:44.774Z,98011.88
2023-04-01T12:55:42.336Z,98010.34
2023-04-01T12:58:33.434Z,98012.13
2023-04-01T13:01:32.686Z,98018.75
2023-04-01T13:04:43.592Z,98012.19
2023-04-01T13:07:24.268Z,98010.41
2023-04-01T13:10:03.940Z,97994.38
2023-04-01T13:13:18.237Z,97997.97
2023-04-01T13:15:51.409Z,98005.50
2023-04-01T13:18:30.599Z,98001.34
2023-04-01T13:21:13.668Z,98005.59
2023-04-01T13:23:55.106Z,98002.91
2023-04-01T13:26:36.962Z,98012.25
2023-04-01T13:29:15.424Z,98007.06
2023-04-01T13:31:56.900Z,98001.84
2023-04-01T13:34:54.691Z,98016.88
2023-04-01T13:37:36.535Z,97986.91
2023-04-01T13:40:14.853Z,98005.56
2023-04-01T13:42:50.514Z,98009.38
2023-04-01T13:45:24.858Z,98001.84
2023-04-01T13:48:19.504Z,97998.16
2023-04-01T13:50:55.506Z,97981.22
2023-04-01T13:53:59.802Z,97983.00
2023-04-01T13:57:10.687Z,97979.34
2023-04-01T13:59:43.706Z,97979.16
2023-04-01T14:02:35.042Z,97974.63
2023-04-01T14:05:42.157Z,97973.44
2023-04-01T14:08:15.738Z,97969.66
2023-04-01T14:11:02.197Z,97964.38
2023-04-01T14:13:36.471Z,97958.69
2023-04-01T14:16:47.731Z,97957.50
2023-04-01T14:19:49.685Z,97951.34
2023-04-01T14:22:35.305Z,97957.84
2023-04-01T14:25:28.897Z,97956.09
2023-04-01T14:27:59.067Z,97945.19
2023-04-01T14:30:45.058Z,97960.88
2023-04-01T14:33:27.765Z,97956.00
2023-04-01T14:36:17.492Z,97955.91
2023-04-01T14:39:05.638Z,97958.06
2023-04-01T14:42:09.125Z,97956.94
2023-04-01T14:44:49.472Z,97964.72
2023-04-01T14:47:19.546Z,97966.38
2023-04-01T14:49:49.458Z,97961.63
2023-04-01T14:52:43.815Z,97956.84
2023-04-01T14:55:44.297Z,97970.31
2023-04-01T14:58:13.263Z,97974.84
2023-04-01T15:01:00.076Z,97969.13
2023-04-01T15:03:54.981Z,97973.91
2023-04-01T15:06:55.929Z,97972.47
2023-04-01T15:09:44.957Z,97970.44
2023-04-01T15:12:35.425Z,97973.38
2023-04-01T15:15:38.145Z,97970.78
2023-04-01T15:18:35.856Z,97981.72
2023-04-01T15:21:31.435Z,97991.94
2023-04-01T15:24:07.167Z,97992.47
2023-04-01T15:26:51.003Z,97997.47
2023-04-01T15:29:46.022Z,98002.28
2023-04-01T15:32:26.149Z,97991.97
2023-04-01T15:35:27.944Z,98002.97
2023-04-01T15:38:09.223Z,97999.47
2023-04-01T15:40:50.011Z,98002.97
2023-04-01T15:43:34.545Z,98003.25
2023-04-01T15:46:28.716Z,98015.84
2023-04-01T15:49:13.509Z,98016.41
2023-04-01T15:52:02.180Z,98015.22
2023-04-01T15:54:50.129Z,98023.22
2023-04-01T15:57:38.151Z,98016.19
2023-04-01T16:00:29.684Z,98023.72
2023-04-01T16:03:22.570Z,98024.06
2023-04-01T16:06:21.162Z,98039.63
2023-04-01T16:09:29.715Z,98026.81
2023-04-01T16:12:12.631Z,98025.97
2023-04-01T16:14:51.178Z,98027.16
2023-04-01T16:17:38.603Z,98024.16
2023-04-01T16:20:19.342Z,98021.72
2023-04-01T16:22:57.248Z,98025.06
2023-04-01T16:25:45.015Z,98028.56
2023-04-01T16:28:38.781Z,98027.13
2023-04-01T16:31:30.801Z,98038.19
2023-04-01T16:34:07.385Z,98043.59
2023-04-01T16:36:33.990Z,98044.50
2023-04-01T16:39:15.156Z,98052.66
2023-04-01T16:41:50.903Z,98044.06
2023-04-01T16:44:21.848Z,98065.94
2023-04-01T16:47:11.223Z,98070.94
2023-04-01T16:49:55.980Z,98082.75
2023-04-01T16:53:02.359Z,98084.91
2023-04-01T16:56:15.818Z,98078.69
2023-04-01T16:59:15.359Z,98091.59
2023-04-01T17:01:56.808Z,98100.34
2023-04-01T17:04:40.232Z,98112.00
2023-04-01T17:07:38.638Z,98111.81
2023-04-01T17:10:36.800Z,98125.88
2023-04-01T17:13:35.038Z,98136.50
2023-04-01T17:16:29.209Z,98134.66
2023-04-01T17:19:06.467Z,98132.56
2023-04-01T17:22:07.425Z,98132.88
2023-04-01T17:25:05.705Z,98141.50
2023-04-01T17:27:49.763Z,98147.69
2023-04-01T17:30:58.339Z,98149.59
2023-04-01T17:33:41.456Z,98166.53
2023-04-01T17:36:39.564Z,98170.81
2023-04-01T17:39:25.115Z,98180.19
2023-04-01T17:42:36.822Z,98176.19
2023-04-01T17:45:39.589Z,98172.13
2023-04-01T17:48:18.542Z,98179.09
2023-04-01T17:51:29.007Z,98193.34
2023-04-01T17:54:17.655Z,98201.13
2023-04-01T17:57:14.452Z,98207.81
2023-04-01T17:59:53.275Z,98203.50
2023-04-01T18:02:33.024Z,98212.06
2023-04-01T18:05:28.061Z,98215.06
2023-04-01T18:08:01.187Z,98214.19
2023-04-01T18:10:40.047Z,98214.94
2023-04-01T18:13:34.775Z,98220.91
2023-04-01T18:16:16.911Z,98221.88
2023-04-01T18:19:06.879Z,98224.03
2023-04-01T18:21:48.186Z,98224.53
2023-04-01T18:24:23.779Z,98234.97
2023-04-01T18:27:02.163Z,98231.97
2023-04-01T18:30:09.070Z,98242.78
2023-04-01T18:32:51.491Z,98254.78
2023-04-01T18:35:46.061Z,98255.66
2023-04-01T18:38:18.227Z,98255.75
2023-04-01T18:41:15.368Z,98255.78
2023-04-01T18:44:16.605Z,98263.50
2023-04-01T18:47:02.146Z,98255.59
2023-04-01T18:49:44.106Z,98251.72
2023-04-01T18:52:19.049Z,98253.84
2023-04-01T18:55:16.816Z,98255.47
2023-04-01T18:58:01.273Z,98245.53
2023-04-01T19:01:02.084Z,98265.84
2023-04-01T19:03:53.383Z,98270.09
2023-04-01T19:06:27.633Z,98258.84
2023-04-01T19:09:16.068Z,98265.75
2023-04-01T19:12:01.411Z,98271.91
2023-04-01T19:14:49.432Z,98281.31
2023-04-01T19:18:00.514Z,98291.22
2023-04-01T19:20:35.614Z,98292.22
2023-04-01T19:23:37.422Z,98294.59
2023-04-01T19:26:47.361Z,98287.06
2023-04-01T19:29:38.220Z,98293.00
2023-04-01T19:32:29.723Z,98296.19
2023-04-01T19:35:24.706Z,98312.94
2023-04-01T19:38:01.520Z,98310.59
2023-04-01T19:40:53.745Z,98310.63
2023-04-01T19:43:50.565Z,98312.84
2023-04-01T19:46:41.889Z,98305.56
2023-04-01T19:49:31.794Z,98312.78
2023-04-01T19:52:34.899Z,98310.94
2023-04-01T19:55:25.838Z,98318.97
2023-04-01T19:58:06.506Z,98315.41
2023-04-01T20:00:45.923Z,98315.03
2023-04-01T20:03:45.260Z,98319.78
2023-04-01T20:06:24.342Z,98323.97
2023-04-01T20:09:22.118Z,98319.66
2023-04-01T20:11:49.106Z,98330.09
2023-04-01T20:14:37.884Z,98322.25
2023-04-01T20:17:31.950Z,98309.88
2023-04-01T20:20:10.661Z,98328.16
2023-04-01T20:22:52.484Z,98325.28
2023-04-01T20:25:23.083Z,98328.91
2023-04-01T20:28:23.688Z,98325.66
2023-04-01T20:31:04.554Z,98327.28
2023-04-01T20:33:56.245Z,98324.09
2023-04-01T20:36:39.157Z,98324.31
2023-04-01T20:39:30.070Z,98321.91
2023-04-01T20:42:36.708Z,98326.72
2023-04-01T20:45:15.093Z,98325.72
2023-04-01T20:48:09.311Z,98335.91
2023-04-01T20:51:28.410Z,98324.59
2023-04-01T20:54:10.634Z,98323.31
2023-04-01T20:56:44.444Z,98322.28
2023-04-01T20:59:47.685Z,98331.41
2023-04-01T21:02:52.414Z,98318.94
2023-04-01T21:05:19.481Z,98327.31
2023-04-01T21:08:09.697Z,98320.56
2023-04-01T21:10:49.397Z,98330.84
2023-04-01T21:13:38.580Z,98329.66
2023-04-01T21:19:29.715Z,98322.59
2023-04-01T21:22:17.736Z,98325.88
2023-04-01T21:25:12.795Z,98337.94
2023-04-01T21:28:14.125Z,98325.88
2023-04-01T21:31:17.340Z,98344.31
2023-04-01T21:34:44.536Z,98344.56
2023-04-01T21:37:44.068Z,98335.19
2023-04-01T21:40:38.206Z,98351.72
2023-04-01T21:43:26.854Z,98348.25
2023-04-01T21:46:15.403Z,98336.47
2023-04-01T21:49:16.061Z,98350.50
2023-04-01T21:51:52.805Z,98355.84
2023-04-01T21:54:43.583Z,98354.00
2023-04-01T21:57:37.935Z,98352.25
2023-04-01T22:00:18.465Z,98357.94
2023-04-01T22:02:56.833Z,98357.66
2023-04-01T22:05:35.125Z,98365.09
2023-04-01T22:08:37.347Z,98355.41
2023-04-01T22:11:24.632Z,98356.03
2023-04-01T22:13:58.351Z,98365.75
2023-04-01T22:16:43.452Z,98359.56
2023-04-01T22:19:21.084Z,98372.88
2023-04-01T22:22:04.110Z,98370.53
2023-04-01T22:25:05.996Z,98381.97
2023-04-01T22:27:53.745Z,98373.22
2023-04-01T22:30:28.031Z,98367.81
2023-04-01T22:33:06.972Z,98363.47
2023-04-01T22:36:02.081Z,98375.75
2023-04-01T22:38:35.068Z,98375.63
2023-04-01T22:41:46.358Z,98373.69
2023-04-01T22:44:57.452Z,98378.53
2023-04-01T22:47:56.425Z,98377.84
2023-04-01T22:50:26.518Z,98378.13
2023-04-01T22:53:27.502Z,98376.84
2023-04-01T22:55:54.833Z,98386.00
2023-04-01T22:58:35.232Z,98385.66
2023-04-01T23:01:07.847Z,98389.72
2023-04-01T23:03:41.362Z,98390.59
2023-04-01T23:06:16.890Z,98389.97
2023-04-01T23:08:47.249Z,98384.41
2023-04-01T23:11:19.250Z,98382.75
2023-04-01T23:13:53.781Z,98390.47
2023-04-01T23:16:33.845Z,98385.47
2023-04-01T23:19:19.253Z,98391.41
2023-04-01T23:21:54.364Z,98393.47
2023-04-01T23:24:28.278Z,98392.47
2023-04-01T23:27:03.449Z,98387.38
2023-04-01T23:29:30.452Z,98385.19
2023-04-01T23:32:28.192Z,98392.09
2023-04-01T23:35:18.256Z,98391.47
2023-04-01T23:37:45.201Z,98394.78
2023-04-01T23:40:14.593Z,98395.03
2023-04-01T23:42:42.370Z,98385.34
2023-04-01T23:45:21.616Z,98392.63
2023-04-01T23:50:32.287Z,98379.09
2023-04-01T23:53:03.433Z,98390.31
2023-04-01T23:55:34.778Z,98389.06
2023-04-01T23:58:17.860Z,98387.38
